Itasca, Texas
Current Conditions -  °F | °C
As of 4:15 PM on Sunday 23 Nov 2014 (Local Time) from KINJ Reporting Station
Clear Clear  
Wind Chill: 74°   Ceiling: Unl
Heat Index: 74°   Visibility: 10mi
Dew Point: 41°   Wind: 13mph
Humidity: 30%   Direction: 250°WSW
Pressure: 29.48"   Gusts: NA
Location:  32.16°N, 97.15°W
Report Text: KINJ 232215Z AUTO 25011KT 10SM CLR 24/05 A2948 RMK AO2 T02360052
Loading
Personal Weather Stations






























Interactive Weather Map New forecast layout! Learn more

10-Day Weather Forecast

Advertisements
Track Severe Weather on mobile